Devi Ahilyabai Holkar Airport

VAID · 中央邦, 印度

METAR VAID · Devi Ahilyabai Holkar Airport

19 七月 16:00 LT
27m
罗盘
风向 的 风向 210° Devi Ahilyabai Holkar Airport 7/25
风: 6 kt, 2 beaufort

5 kt

3 kt
改变
0 ft 2.000 4.000 6.000 8.000 10.000
Cloud Cloud
FEW 1.000
Cloud Cloud Cloud Cloud
SCT 1.800
Cloud Cloud Cloud Cloud Cloud Cloud
BKN 10.000
METAR VAID 191030Z 21006KT 6000 FEW010 SCT018 BKN100 30/24 Q1000 NOSIG

METAR Devi Ahilyabai Holkar Airport - VAID/IDR

Devi Ahilyabai Holkar Airport是,印度中的中型机场。 该机场位于纬度22,72180和经度75,80110。 该机场有一条跑道: 7/25. 本场的ICAO机场代码为VAID。 该机场的IATA代码为IDR。 机场在Mumbai FIR中。

该航空气象观测是针对Devi Ahilyabai Holkar Airport在2024年7月19日 16:00, 当地时间进行的。

机场观察

风向为210°,速度为6 kt。

可见度为6 km。

有几云在1.000 ft的高度, 疏云,零星散落的云朵在1.800 ft的高度 和 碎云在10.000 ft的高度。 破损或更高的上限为10.000 ft。

温度和风寒是30 °C。 热指数为35。 露点为24 °C,相对湿度为70%。 海平面上的气压为1000 hPa (QNH)。

白天

今天,太阳从05:52升起,在19:13降落。 这适用于Devi Ahilyabai Holkar Airport,世界夏令时可能有所不同。 当地时间与世界标准时间之间的时差为+5 小时 30 分钟。 夏令时目前正在进行中。

公司介绍

在这个机场,你可以找到飞行学校。 本场上唯一已知的公司是Madhya Pradesh Flying Club, Indore。

体会

到Vliegles.nl去找飞行课程,跳伞和其他飞行体验。 浏览页面,了解Devi Ahilyabai Holkar Airport附近所有可用的活动。 你也可以使用搜索功能来寻找你所在地附近的特定飞行课程、跳伞或其他飞行体验。

跑道

Id 标题 侧风 逆风 侧风 %
7/25 065°-245° 3 kt 5 kt 57 %

逆风成分最大的方向会被突出显示,并用于横风计算。 这并不一定意味着这个方向在使用。

乌云

1.000 ft FEW 几云
1.800 ft SCT 疏云,零星散落的云朵
10.000 ft BKN 碎云

温度 & 天气

温度 30 °C
露点 24 °C
相对湿度 70%
热度指数 35 °C
Kp-index 1 (0-9)

白天

日出
05:52
中午
12:33
日落
19:13 (2:46)

小工具

你想在你的网站上有一个关于Devi Ahilyabai Holkar Airport的当前航空天气(METAR)的小部件吗?

显示HTML代码
报告变更